sensor_id;sensor_type;location;lat;lon;timestamp;P1;durP1;ratioP1;P2;durP2;ratioP2
76336;SDS011;65157;50.082;18.178;2024-01-07T00:00:07;15.30;;;7.00;;
76336;SDS011;65157;50.082;18.178;2024-01-07T00:02:35;13.10;;;6.70;;
76336;SDS011;65157;50.082;18.178;2024-01-07T00:05:02;13.90;;;8.20;;
76336;SDS011;65157;50.082;18.178;2024-01-07T00:07:29;16.70;;;8.70;;
76336;SDS011;65157;50.082;18.178;2024-01-07T00:09:55;17.70;;;8.30;;
76336;SDS011;65157;50.082;18.178;2024-01-07T00:12:22;15.60;;;8.50;;
76336;SDS011;65157;50.082;18.178;2024-01-07T00:14:48;17.20;;;9.30;;
76336;SDS011;65157;50.082;18.178;2024-01-07T00:17:15;17.20;;;8.50;;
76336;SDS011;65157;50.082;18.178;2024-01-07T00:19:42;16.50;;;8.70;;
76336;SDS011;65157;50.082;18.178;2024-01-07T00:22:08;7.40;;;4.80;;
76336;SDS011;65157;50.082;18.178;2024-01-07T00:24:35;14.50;;;7.50;;
76336;SDS011;65157;50.082;18.178;2024-01-07T00:27:02;16.80;;;9.30;;
76336;SDS011;65157;50.082;18.178;2024-01-07T00:29:29;13.90;;;7.60;;
76336;SDS011;65157;50.082;18.178;2024-01-07T00:31:56;14.40;;;8.40;;
76336;SDS011;65157;50.082;18.178;2024-01-07T00:34:22;13.60;;;6.80;;
76336;SDS011;65157;50.082;18.178;2024-01-07T00:36:49;13.40;;;7.40;;
76336;SDS011;65157;50.082;18.178;2024-01-07T00:39:15;17.80;;;9.10;;
76336;SDS011;65157;50.082;18.178;2024-01-07T00:41:42;16.90;;;9.50;;
76336;SDS011;65157;50.082;18.178;2024-01-07T00:44:09;13.00;;;7.10;;
76336;SDS011;65157;50.082;18.178;2024-01-07T00:46:35;13.10;;;6.80;;
76336;SDS011;65157;50.082;18.178;2024-01-07T00:49:02;13.40;;;7.20;;
76336;SDS011;65157;50.082;18.178;2024-01-07T00:51:29;13.30;;;7.10;;
76336;SDS011;65157;50.082;18.178;2024-01-07T00:53:55;12.30;;;7.20;;
76336;SDS011;65157;50.082;18.178;2024-01-07T00:56:25;12.60;;;7.30;;
76336;SDS011;65157;50.082;18.178;2024-01-07T00:58:52;13.40;;;7.40;;
76336;SDS011;65157;50.082;18.178;2024-01-07T01:01:19;14.70;;;7.10;;
76336;SDS011;65157;50.082;18.178;2024-01-07T01:03:45;11.20;;;8.30;;
76336;SDS011;65157;50.082;18.178;2024-01-07T01:06:12;13.80;;;7.50;;
76336;SDS011;65157;50.082;18.178;2024-01-07T01:08:39;12.60;;;7.00;;
76336;SDS011;65157;50.082;18.178;2024-01-07T01:11:08;10.70;;;5.20;;
76336;SDS011;65157;50.082;18.178;2024-01-07T01:13:36;11.40;;;6.10;;
76336;SDS011;65157;50.082;18.178;2024-01-07T01:16:02;14.80;;;8.00;;
76336;SDS011;65157;50.082;18.178;2024-01-07T01:18:29;11.70;;;6.30;;
76336;SDS011;65157;50.082;18.178;2024-01-07T01:20:56;14.70;;;8.20;;
76336;SDS011;65157;50.082;18.178;2024-01-07T01:23:23;12.40;;;5.90;;
76336;SDS011;65157;50.082;18.178;2024-01-07T01:25:50;12.90;;;6.70;;
76336;SDS011;65157;50.082;18.178;2024-01-07T01:28:16;11.50;;;6.60;;
76336;SDS011;65157;50.082;18.178;2024-01-07T01:30:43;14.60;;;7.30;;
76336;SDS011;65157;50.082;18.178;2024-01-07T01:33:10;13.00;;;6.50;;
76336;SDS011;65157;50.082;18.178;2024-01-07T01:35:36;16.00;;;7.50;;
76336;SDS011;65157;50.082;18.178;2024-01-07T01:38:03;12.40;;;7.70;;
76336;SDS011;65157;50.082;18.178;2024-01-07T01:40:30;11.60;;;6.50;;
76336;SDS011;65157;50.082;18.178;2024-01-07T01:42:56;16.20;;;7.20;;
76336;SDS011;65157;50.082;18.178;2024-01-07T01:45:23;11.00;;;5.70;;
76336;SDS011;65157;50.082;18.178;2024-01-07T01:47:50;11.30;;;6.10;;
76336;SDS011;65157;50.082;18.178;2024-01-07T01:50:16;8.20;;;6.10;;
76336;SDS011;65157;50.082;18.178;2024-01-07T01:52:44;12.30;;;6.30;;
76336;SDS011;65157;50.082;18.178;2024-01-07T01:55:12;13.70;;;6.30;;
76336;SDS011;65157;50.082;18.178;2024-01-07T01:57:39;12.70;;;5.60;;
76336;SDS011;65157;50.082;18.178;2024-01-07T02:02:37;9.60;;;5.10;;
76336;SDS011;65157;50.082;18.178;2024-01-07T02:05:04;7.60;;;4.90;;
76336;SDS011;65157;50.082;18.178;2024-01-07T02:07:31;8.40;;;4.80;;
76336;SDS011;65157;50.082;18.178;2024-01-07T02:09:58;11.80;;;6.20;;
76336;SDS011;65157;50.082;18.178;2024-01-07T02:12:25;8.20;;;4.50;;
76336;SDS011;65157;50.082;18.178;2024-01-07T02:14:52;8.60;;;4.10;;
76336;SDS011;65157;50.082;18.178;2024-01-07T02:17:19;10.00;;;4.70;;
76336;SDS011;65157;50.082;18.178;2024-01-07T02:19:46;9.50;;;5.00;;
76336;SDS011;65157;50.082;18.178;2024-01-07T02:22:12;7.20;;;4.80;;
76336;SDS011;65157;50.082;18.178;2024-01-07T02:24:39;8.30;;;4.90;;
76336;SDS011;65157;50.082;18.178;2024-01-07T02:27:06;7.90;;;4.90;;
76336;SDS011;65157;50.082;18.178;2024-01-07T02:29:32;7.60;;;4.80;;
76336;SDS011;65157;50.082;18.178;2024-01-07T02:31:59;7.70;;;4.20;;
76336;SDS011;65157;50.082;18.178;2024-01-07T02:34:25;8.10;;;4.00;;
76336;SDS011;65157;50.082;18.178;2024-01-07T02:36:52;8.10;;;4.70;;
76336;SDS011;65157;50.082;18.178;2024-01-07T02:39:19;7.90;;;4.20;;
76336;SDS011;65157;50.082;18.178;2024-01-07T02:41:45;5.60;;;3.30;;
76336;SDS011;65157;50.082;18.178;2024-01-07T02:44:12;6.70;;;4.30;;
76336;SDS011;65157;50.082;18.178;2024-01-07T02:46:39;7.00;;;4.40;;
76336;SDS011;65157;50.082;18.178;2024-01-07T02:49:06;5.30;;;3.50;;
76336;SDS011;65157;50.082;18.178;2024-01-07T02:51:32;7.10;;;4.20;;
76336;SDS011;65157;50.082;18.178;2024-01-07T02:53:59;5.20;;;3.30;;
76336;SDS011;65157;50.082;18.178;2024-01-07T02:56:26;6.80;;;3.70;;
76336;SDS011;65157;50.082;18.178;2024-01-07T02:58:52;6.50;;;3.10;;
76336;SDS011;65157;50.082;18.178;2024-01-07T03:01:21;6.40;;;3.80;;
76336;SDS011;65157;50.082;18.178;2024-01-07T03:03:49;3.40;;;2.60;;
76336;SDS011;65157;50.082;18.178;2024-01-07T03:06:17;6.00;;;4.10;;
76336;SDS011;65157;50.082;18.178;2024-01-07T03:08:43;4.80;;;3.10;;
76336;SDS011;65157;50.082;18.178;2024-01-07T03:11:10;5.60;;;3.80;;
76336;SDS011;65157;50.082;18.178;2024-01-07T03:13:36;8.70;;;4.50;;
76336;SDS011;65157;50.082;18.178;2024-01-07T03:16:06;7.70;;;3.70;;
76336;SDS011;65157;50.082;18.178;2024-01-07T03:18:32;5.20;;;3.40;;
76336;SDS011;65157;50.082;18.178;2024-01-07T03:20:59;5.50;;;3.40;;
76336;SDS011;65157;50.082;18.178;2024-01-07T03:23:26;5.80;;;3.30;;
76336;SDS011;65157;50.082;18.178;2024-01-07T03:25:52;6.10;;;3.00;;
76336;SDS011;65157;50.082;18.178;2024-01-07T03:28:19;4.70;;;3.00;;
76336;SDS011;65157;50.082;18.178;2024-01-07T03:30:45;5.40;;;3.50;;
76336;SDS011;65157;50.082;18.178;2024-01-07T03:33:12;3.10;;;2.80;;
76336;SDS011;65157;50.082;18.178;2024-01-07T03:35:39;7.70;;;3.70;;
76336;SDS011;65157;50.082;18.178;2024-01-07T03:38:05;4.30;;;3.40;;
76336;SDS011;65157;50.082;18.178;2024-01-07T03:40:32;5.10;;;3.60;;
76336;SDS011;65157;50.082;18.178;2024-01-07T03:42:59;5.30;;;4.10;;
76336;SDS011;65157;50.082;18.178;2024-01-07T03:45:25;5.50;;;4.20;;
76336;SDS011;65157;50.082;18.178;2024-01-07T03:47:52;5.00;;;3.10;;
76336;SDS011;65157;50.082;18.178;2024-01-07T03:50:18;7.70;;;4.40;;
76336;SDS011;65157;50.082;18.178;2024-01-07T03:52:45;5.80;;;4.10;;
76336;SDS011;65157;50.082;18.178;2024-01-07T03:55:11;5.40;;;4.20;;
76336;SDS011;65157;50.082;18.178;2024-01-07T03:57:38;6.20;;;3.60;;
76336;SDS011;65157;50.082;18.178;2024-01-07T04:00:05;5.70;;;3.10;;
76336;SDS011;65157;50.082;18.178;2024-01-07T04:02:33;5.70;;;3.50;;
76336;SDS011;65157;50.082;18.178;2024-01-07T04:05:00;5.10;;;3.90;;
76336;SDS011;65157;50.082;18.178;2024-01-07T04:07:26;4.80;;;2.70;;
76336;SDS011;65157;50.082;18.178;2024-01-07T04:09:53;5.20;;;3.70;;
76336;SDS011;65157;50.082;18.178;2024-01-07T04:12:20;5.30;;;3.60;;
76336;SDS011;65157;50.082;18.178;2024-01-07T04:14:46;7.00;;;4.40;;
76336;SDS011;65157;50.082;18.178;2024-01-07T04:17:14;3.70;;;3.40;;
76336;SDS011;65157;50.082;18.178;2024-01-07T04:19:40;5.20;;;3.30;;
76336;SDS011;65157;50.082;18.178;2024-01-07T04:22:07;4.70;;;3.20;;
76336;SDS011;65157;50.082;18.178;2024-01-07T04:24:33;5.50;;;3.60;;
76336;SDS011;65157;50.082;18.178;2024-01-07T04:27:00;7.10;;;4.10;;
76336;SDS011;65157;50.082;18.178;2024-01-07T04:29:27;7.00;;;3.50;;
76336;SDS011;65157;50.082;18.178;2024-01-07T04:31:53;6.60;;;3.60;;
76336;SDS011;65157;50.082;18.178;2024-01-07T04:34:20;6.30;;;3.30;;
76336;SDS011;65157;50.082;18.178;2024-01-07T04:36:46;9.00;;;3.80;;
76336;SDS011;65157;50.082;18.178;2024-01-07T04:39:13;8.10;;;4.30;;
76336;SDS011;65157;50.082;18.178;2024-01-07T04:41:40;7.50;;;4.10;;
76336;SDS011;65157;50.082;18.178;2024-01-07T04:44:06;6.30;;;3.50;;
76336;SDS011;65157;50.082;18.178;2024-01-07T04:46:33;6.20;;;4.30;;
76336;SDS011;65157;50.082;18.178;2024-01-07T04:49:00;3.20;;;1.90;;
76336;SDS011;65157;50.082;18.178;2024-01-07T04:51:27;3.90;;;1.70;;
76336;SDS011;65157;50.082;18.178;2024-01-07T04:53:54;6.00;;;3.70;;
76336;SDS011;65157;50.082;18.178;2024-01-07T04:56:21;5.50;;;3.40;;
76336;SDS011;65157;50.082;18.178;2024-01-07T04:58:47;4.30;;;2.80;;
76336;SDS011;65157;50.082;18.178;2024-01-07T05:01:14;6.30;;;3.70;;
76336;SDS011;65157;50.082;18.178;2024-01-07T05:03:42;3.90;;;3.10;;
76336;SDS011;65157;50.082;18.178;2024-01-07T05:06:08;2.70;;;1.90;;
76336;SDS011;65157;50.082;18.178;2024-01-07T05:08:35;4.00;;;2.50;;
76336;SDS011;65157;50.082;18.178;2024-01-07T05:11:03;5.40;;;3.20;;
76336;SDS011;65157;50.082;18.178;2024-01-07T05:13:30;3.60;;;2.60;;
76336;SDS011;65157;50.082;18.178;2024-01-07T05:15:57;4.50;;;2.80;;
76336;SDS011;65157;50.082;18.178;2024-01-07T05:18:23;5.60;;;2.70;;
76336;SDS011;65157;50.082;18.178;2024-01-07T05:20:50;3.40;;;2.70;;
76336;SDS011;65157;50.082;18.178;2024-01-07T05:23:18;4.00;;;2.40;;
76336;SDS011;65157;50.082;18.178;2024-01-07T05:25:45;4.60;;;3.00;;
76336;SDS011;65157;50.082;18.178;2024-01-07T05:28:13;6.10;;;2.90;;
76336;SDS011;65157;50.082;18.178;2024-01-07T05:30:40;3.90;;;3.30;;
76336;SDS011;65157;50.082;18.178;2024-01-07T05:33:08;4.70;;;3.00;;
76336;SDS011;65157;50.082;18.178;2024-01-07T05:35:35;5.50;;;3.50;;
76336;SDS011;65157;50.082;18.178;2024-01-07T05:38:02;4.20;;;3.00;;
76336;SDS011;65157;50.082;18.178;2024-01-07T05:40:28;4.60;;;3.20;;
76336;SDS011;65157;50.082;18.178;2024-01-07T05:42:55;5.90;;;3.00;;
76336;SDS011;65157;50.082;18.178;2024-01-07T05:45:22;5.60;;;3.80;;
76336;SDS011;65157;50.082;18.178;2024-01-07T05:47:48;6.30;;;3.50;;
76336;SDS011;65157;50.082;18.178;2024-01-07T05:50:15;5.80;;;4.10;;
76336;SDS011;65157;50.082;18.178;2024-01-07T05:52:42;2.90;;;2.20;;
76336;SDS011;65157;50.082;18.178;2024-01-07T05:55:08;6.40;;;3.80;;
76336;SDS011;65157;50.082;18.178;2024-01-07T05:57:35;5.40;;;4.10;;
76336;SDS011;65157;50.082;18.178;2024-01-07T06:00:02;6.60;;;3.90;;
76336;SDS011;65157;50.082;18.178;2024-01-07T06:02:29;4.10;;;2.20;;
76336;SDS011;65157;50.082;18.178;2024-01-07T06:04:55;3.80;;;2.60;;
76336;SDS011;65157;50.082;18.178;2024-01-07T06:07:22;5.90;;;2.80;;
76336;SDS011;65157;50.082;18.178;2024-01-07T06:09:49;2.30;;;1.90;;
76336;SDS011;65157;50.082;18.178;2024-01-07T06:12:15;4.50;;;2.60;;
76336;SDS011;65157;50.082;18.178;2024-01-07T06:14:42;6.70;;;2.80;;
76336;SDS011;65157;50.082;18.178;2024-01-07T06:17:08;5.00;;;3.20;;
76336;SDS011;65157;50.082;18.178;2024-01-07T06:19:35;5.00;;;3.30;;
76336;SDS011;65157;50.082;18.178;2024-01-07T06:22:02;4.60;;;2.50;;
76336;SDS011;65157;50.082;18.178;2024-01-07T06:24:28;2.10;;;1.80;;
76336;SDS011;65157;50.082;18.178;2024-01-07T06:26:55;3.20;;;2.40;;
76336;SDS011;65157;50.082;18.178;2024-01-07T06:29:22;5.20;;;2.70;;
76336;SDS011;65157;50.082;18.178;2024-01-07T06:31:48;4.10;;;3.20;;
76336;SDS011;65157;50.082;18.178;2024-01-07T06:34:15;5.10;;;3.50;;
76336;SDS011;65157;50.082;18.178;2024-01-07T06:36:42;4.50;;;2.80;;
76336;SDS011;65157;50.082;18.178;2024-01-07T06:39:08;4.10;;;3.00;;
76336;SDS011;65157;50.082;18.178;2024-01-07T06:41:35;4.50;;;2.50;;
76336;SDS011;65157;50.082;18.178;2024-01-07T06:44:02;4.70;;;2.60;;
76336;SDS011;65157;50.082;18.178;2024-01-07T06:46:29;6.60;;;3.50;;
76336;SDS011;65157;50.082;18.178;2024-01-07T06:48:56;4.00;;;2.70;;
76336;SDS011;65157;50.082;18.178;2024-01-07T06:51:22;3.60;;;2.50;;
76336;SDS011;65157;50.082;18.178;2024-01-07T06:53:49;4.70;;;3.70;;
76336;SDS011;65157;50.082;18.178;2024-01-07T06:56:16;5.00;;;2.50;;
76336;SDS011;65157;50.082;18.178;2024-01-07T06:58:42;4.40;;;3.40;;
76336;SDS011;65157;50.082;18.178;2024-01-07T07:01:09;5.40;;;3.80;;
76336;SDS011;65157;50.082;18.178;2024-01-07T07:03:36;6.50;;;3.80;;
76336;SDS011;65157;50.082;18.178;2024-01-07T07:06:04;6.20;;;3.70;;
76336;SDS011;65157;50.082;18.178;2024-01-07T07:08:31;6.10;;;3.80;;
76336;SDS011;65157;50.082;18.178;2024-01-07T07:10:57;7.40;;;4.00;;
76336;SDS011;65157;50.082;18.178;2024-01-07T07:13:24;6.80;;;3.30;;
76336;SDS011;65157;50.082;18.178;2024-01-07T07:15:50;5.40;;;3.60;;
76336;SDS011;65157;50.082;18.178;2024-01-07T07:18:17;5.10;;;3.30;;
76336;SDS011;65157;50.082;18.178;2024-01-07T07:20:44;4.90;;;2.80;;
76336;SDS011;65157;50.082;18.178;2024-01-07T07:23:10;4.90;;;3.10;;
76336;SDS011;65157;50.082;18.178;2024-01-07T07:25:37;8.30;;;5.80;;
76336;SDS011;65157;50.082;18.178;2024-01-07T07:28:04;7.10;;;5.70;;
76336;SDS011;65157;50.082;18.178;2024-01-07T07:30:31;7.10;;;4.20;;
76336;SDS011;65157;50.082;18.178;2024-01-07T07:32:57;6.90;;;4.40;;
76336;SDS011;65157;50.082;18.178;2024-01-07T07:35:25;6.20;;;3.60;;
76336;SDS011;65157;50.082;18.178;2024-01-07T07:40:18;8.60;;;3.50;;
76336;SDS011;65157;50.082;18.178;2024-01-07T07:42:45;9.20;;;3.60;;
76336;SDS011;65157;50.082;18.178;2024-01-07T07:45:11;7.80;;;4.10;;
76336;SDS011;65157;50.082;18.178;2024-01-07T07:47:38;9.00;;;4.80;;
76336;SDS011;65157;50.082;18.178;2024-01-07T07:50:08;7.30;;;4.00;;
76336;SDS011;65157;50.082;18.178;2024-01-07T07:52:35;7.90;;;3.90;;
76336;SDS011;65157;50.082;18.178;2024-01-07T07:55:02;8.90;;;6.40;;
76336;SDS011;65157;50.082;18.178;2024-01-07T07:57:29;7.30;;;4.10;;
76336;SDS011;65157;50.082;18.178;2024-01-07T07:59:56;6.30;;;5.20;;
76336;SDS011;65157;50.082;18.178;2024-01-07T08:04:49;7.20;;;4.10;;
76336;SDS011;65157;50.082;18.178;2024-01-07T08:07:16;9.40;;;4.60;;
76336;SDS011;65157;50.082;18.178;2024-01-07T08:09:43;9.70;;;4.60;;
76336;SDS011;65157;50.082;18.178;2024-01-07T08:12:09;5.50;;;4.20;;
76336;SDS011;65157;50.082;18.178;2024-01-07T08:14:36;7.00;;;3.80;;
76336;SDS011;65157;50.082;18.178;2024-01-07T08:17:03;11.90;;;5.10;;
76336;SDS011;65157;50.082;18.178;2024-01-07T08:19:29;9.70;;;5.00;;
76336;SDS011;65157;50.082;18.178;2024-01-07T08:21:56;7.60;;;4.40;;
76336;SDS011;65157;50.082;18.178;2024-01-07T08:24:23;11.00;;;5.80;;
76336;SDS011;65157;50.082;18.178;2024-01-07T08:26:49;12.60;;;6.00;;
76336;SDS011;65157;50.082;18.178;2024-01-07T08:29:16;11.60;;;5.10;;
76336;SDS011;65157;50.082;18.178;2024-01-07T08:31:42;11.00;;;4.40;;
76336;SDS011;65157;50.082;18.178;2024-01-07T08:34:09;10.20;;;4.60;;
76336;SDS011;65157;50.082;18.178;2024-01-07T08:36:36;12.10;;;5.50;;
76336;SDS011;65157;50.082;18.178;2024-01-07T08:39:02;7.40;;;4.20;;
76336;SDS011;65157;50.082;18.178;2024-01-07T08:41:29;9.80;;;4.90;;
76336;SDS011;65157;50.082;18.178;2024-01-07T08:43:56;10.00;;;5.30;;
76336;SDS011;65157;50.082;18.178;2024-01-07T08:46:22;11.30;;;5.30;;
76336;SDS011;65157;50.082;18.178;2024-01-07T08:48:49;10.10;;;5.40;;
76336;SDS011;65157;50.082;18.178;2024-01-07T08:51:15;13.20;;;5.40;;
76336;SDS011;65157;50.082;18.178;2024-01-07T08:53:42;12.10;;;5.30;;
76336;SDS011;65157;50.082;18.178;2024-01-07T08:56:09;13.10;;;5.90;;
76336;SDS011;65157;50.082;18.178;2024-01-07T08:58:36;10.30;;;5.40;;
76336;SDS011;65157;50.082;18.178;2024-01-07T09:01:02;11.00;;;6.10;;
76336;SDS011;65157;50.082;18.178;2024-01-07T09:03:29;10.00;;;6.20;;
76336;SDS011;65157;50.082;18.178;2024-01-07T09:05:56;8.30;;;4.50;;
76336;SDS011;65157;50.082;18.178;2024-01-07T09:08:25;13.50;;;7.20;;
76336;SDS011;65157;50.082;18.178;2024-01-07T09:10:51;8.90;;;4.50;;
76336;SDS011;65157;50.082;18.178;2024-01-07T09:13:18;11.10;;;7.20;;
76336;SDS011;65157;50.082;18.178;2024-01-07T09:15:45;12.30;;;6.40;;
76336;SDS011;65157;50.082;18.178;2024-01-07T09:18:11;12.00;;;5.30;;
76336;SDS011;65157;50.082;18.178;2024-01-07T09:20:38;12.20;;;5.90;;
76336;SDS011;65157;50.082;18.178;2024-01-07T09:23:04;12.70;;;5.10;;
76336;SDS011;65157;50.082;18.178;2024-01-07T09:25:31;9.90;;;6.00;;
76336;SDS011;65157;50.082;18.178;2024-01-07T09:27:58;10.40;;;5.10;;
76336;SDS011;65157;50.082;18.178;2024-01-07T09:30:25;16.40;;;7.90;;
76336;SDS011;65157;50.082;18.178;2024-01-07T09:32:51;7.60;;;4.20;;
76336;SDS011;65157;50.082;18.178;2024-01-07T09:35:19;12.00;;;6.70;;
76336;SDS011;65157;50.082;18.178;2024-01-07T09:37:46;11.90;;;6.60;;
76336;SDS011;65157;50.082;18.178;2024-01-07T09:40:16;11.10;;;6.80;;
76336;SDS011;65157;50.082;18.178;2024-01-07T09:42:43;12.30;;;6.20;;
76336;SDS011;65157;50.082;18.178;2024-01-07T09:45:12;8.90;;;4.60;;
76336;SDS011;65157;50.082;18.178;2024-01-07T09:47:40;11.80;;;6.10;;
76336;SDS011;65157;50.082;18.178;2024-01-07T09:50:08;12.20;;;6.10;;
76336;SDS011;65157;50.082;18.178;2024-01-07T09:52:35;10.80;;;4.50;;
76336;SDS011;65157;50.082;18.178;2024-01-07T09:55:04;11.70;;;5.60;;
76336;SDS011;65157;50.082;18.178;2024-01-07T09:57:34;4.80;;;2.90;;
76336;SDS011;65157;50.082;18.178;2024-01-07T10:00:03;14.50;;;6.50;;
76336;SDS011;65157;50.082;18.178;2024-01-07T10:02:31;10.10;;;5.50;;
76336;SDS011;65157;50.082;18.178;2024-01-07T10:04:58;11.60;;;5.80;;
76336;SDS011;65157;50.082;18.178;2024-01-07T10:07:25;13.40;;;7.30;;
76336;SDS011;65157;50.082;18.178;2024-01-07T10:09:52;10.20;;;5.10;;
76336;SDS011;65157;50.082;18.178;2024-01-07T10:12:22;9.50;;;5.70;;
76336;SDS011;65157;50.082;18.178;2024-01-07T10:14:49;13.80;;;7.10;;
76336;SDS011;65157;50.082;18.178;2024-01-07T10:17:16;11.20;;;6.50;;
76336;SDS011;65157;50.082;18.178;2024-01-07T10:22:12;12.00;;;6.20;;
76336;SDS011;65157;50.082;18.178;2024-01-07T10:27:07;9.00;;;4.20;;
76336;SDS011;65157;50.082;18.178;2024-01-07T10:29:34;8.90;;;5.30;;
76336;SDS011;65157;50.082;18.178;2024-01-07T10:32:01;10.80;;;5.90;;
76336;SDS011;65157;50.082;18.178;2024-01-07T10:34:29;14.90;;;7.70;;
76336;SDS011;65157;50.082;18.178;2024-01-07T10:37:01;10.70;;;4.60;;
76336;SDS011;65157;50.082;18.178;2024-01-07T10:39:29;17.00;;;7.30;;
76336;SDS011;65157;50.082;18.178;2024-01-07T10:41:56;15.70;;;7.10;;
76336;SDS011;65157;50.082;18.178;2024-01-07T10:44:24;14.40;;;7.00;;
76336;SDS011;65157;50.082;18.178;2024-01-07T10:46:56;13.80;;;6.70;;
76336;SDS011;65157;50.082;18.178;2024-01-07T10:49:24;13.80;;;7.60;;
76336;SDS011;65157;50.082;18.178;2024-01-07T10:51:56;16.50;;;6.50;;
76336;SDS011;65157;50.082;18.178;2024-01-07T10:56:58;15.50;;;6.40;;
76336;SDS011;65157;50.082;18.178;2024-01-07T10:59:26;12.20;;;6.00;;
76336;SDS011;65157;50.082;18.178;2024-01-07T11:01:55;12.00;;;6.30;;
76336;SDS011;65157;50.082;18.178;2024-01-07T11:04:23;14.00;;;6.50;;
76336;SDS011;65157;50.082;18.178;2024-01-07T11:07:19;15.60;;;7.10;;
76336;SDS011;65157;50.082;18.178;2024-01-07T11:12:38;8.90;;;4.10;;
76336;SDS011;65157;50.082;18.178;2024-01-07T11:15:04;11.70;;;5.90;;
76336;SDS011;65157;50.082;18.178;2024-01-07T11:20:01;11.40;;;6.00;;
76336;SDS011;65157;50.082;18.178;2024-01-07T11:22:31;15.70;;;7.10;;
76336;SDS011;65157;50.082;18.178;2024-01-07T11:24:59;13.60;;;6.60;;
76336;SDS011;65157;50.082;18.178;2024-01-07T11:27:30;14.30;;;6.70;;
76336;SDS011;65157;50.082;18.178;2024-01-07T11:29:57;15.70;;;6.30;;
76336;SDS011;65157;50.082;18.178;2024-01-07T11:32:28;10.80;;;5.20;;
76336;SDS011;65157;50.082;18.178;2024-01-07T11:34:57;13.20;;;6.70;;
76336;SDS011;65157;50.082;18.178;2024-01-07T11:37:24;14.00;;;6.90;;
76336;SDS011;65157;50.082;18.178;2024-01-07T11:39:53;13.10;;;6.50;;
76336;SDS011;65157;50.082;18.178;2024-01-07T11:42:22;14.70;;;6.80;;
76336;SDS011;65157;50.082;18.178;2024-01-07T11:44:52;15.20;;;6.60;;
76336;SDS011;65157;50.082;18.178;2024-01-07T11:47:21;8.10;;;4.80;;
76336;SDS011;65157;50.082;18.178;2024-01-07T11:49:48;15.00;;;7.00;;
76336;SDS011;65157;50.082;18.178;2024-01-07T11:52:15;12.40;;;6.70;;
76336;SDS011;65157;50.082;18.178;2024-01-07T11:54:42;13.60;;;6.70;;
76336;SDS011;65157;50.082;18.178;2024-01-07T11:57:09;14.00;;;6.80;;
76336;SDS011;65157;50.082;18.178;2024-01-07T12:02:03;13.30;;;5.90;;
76336;SDS011;65157;50.082;18.178;2024-01-07T12:04:30;15.90;;;6.90;;
76336;SDS011;65157;50.082;18.178;2024-01-07T12:06:57;12.80;;;5.80;;
76336;SDS011;65157;50.082;18.178;2024-01-07T12:09:25;11.70;;;5.10;;
76336;SDS011;65157;50.082;18.178;2024-01-07T12:11:52;13.60;;;6.90;;
76336;SDS011;65157;50.082;18.178;2024-01-07T12:14:19;12.70;;;6.90;;
76336;SDS011;65157;50.082;18.178;2024-01-07T12:16:46;14.00;;;7.30;;
76336;SDS011;65157;50.082;18.178;2024-01-07T12:19:13;14.90;;;6.40;;
76336;SDS011;65157;50.082;18.178;2024-01-07T12:21:39;18.80;;;7.70;;
76336;SDS011;65157;50.082;18.178;2024-01-07T12:24:06;12.10;;;5.30;;
76336;SDS011;65157;50.082;18.178;2024-01-07T12:26:32;12.30;;;6.10;;
76336;SDS011;65157;50.082;18.178;2024-01-07T12:28:59;16.70;;;7.70;;
76336;SDS011;65157;50.082;18.178;2024-01-07T12:31:26;18.90;;;6.90;;
76336;SDS011;65157;50.082;18.178;2024-01-07T12:33:53;18.80;;;7.90;;
76336;SDS011;65157;50.082;18.178;2024-01-07T12:36:21;11.20;;;5.30;;
76336;SDS011;65157;50.082;18.178;2024-01-07T12:41:15;17.70;;;7.90;;
76336;SDS011;65157;50.082;18.178;2024-01-07T12:43:42;21.60;;;9.60;;
76336;SDS011;65157;50.082;18.178;2024-01-07T12:46:10;22.30;;;10.00;;
76336;SDS011;65157;50.082;18.178;2024-01-07T12:48:36;18.40;;;7.90;;
76336;SDS011;65157;50.082;18.178;2024-01-07T12:51:03;20.90;;;8.80;;
76336;SDS011;65157;50.082;18.178;2024-01-07T12:53:30;24.20;;;9.60;;
76336;SDS011;65157;50.082;18.178;2024-01-07T12:55:56;25.00;;;9.40;;
76336;SDS011;65157;50.082;18.178;2024-01-07T12:58:23;20.60;;;8.70;;
76336;SDS011;65157;50.082;18.178;2024-01-07T13:00:50;19.90;;;8.00;;
76336;SDS011;65157;50.082;18.178;2024-01-07T13:03:17;25.60;;;10.80;;
76336;SDS011;65157;50.082;18.178;2024-01-07T13:05:44;22.00;;;9.70;;
76336;SDS011;65157;50.082;18.178;2024-01-07T13:08:11;29.70;;;12.90;;
76336;SDS011;65157;50.082;18.178;2024-01-07T13:10:40;17.60;;;8.60;;
76336;SDS011;65157;50.082;18.178;2024-01-07T13:13:22;17.20;;;8.60;;
76336;SDS011;65157;50.082;18.178;2024-01-07T13:15:49;18.30;;;8.60;;
76336;SDS011;65157;50.082;18.178;2024-01-07T13:18:16;21.20;;;11.00;;
76336;SDS011;65157;50.082;18.178;2024-01-07T13:20:43;21.50;;;11.30;;
76336;SDS011;65157;50.082;18.178;2024-01-07T13:23:10;25.50;;;11.90;;
76336;SDS011;65157;50.082;18.178;2024-01-07T13:25:36;16.70;;;7.90;;
76336;SDS011;65157;50.082;18.178;2024-01-07T13:28:03;11.00;;;6.30;;
76336;SDS011;65157;50.082;18.178;2024-01-07T13:30:30;14.10;;;7.60;;
76336;SDS011;65157;50.082;18.178;2024-01-07T13:32:59;17.40;;;9.60;;
76336;SDS011;65157;50.082;18.178;2024-01-07T13:35:26;16.20;;;8.10;;
76336;SDS011;65157;50.082;18.178;2024-01-07T13:37:53;18.50;;;8.40;;
76336;SDS011;65157;50.082;18.178;2024-01-07T13:40:19;15.30;;;8.30;;
76336;SDS011;65157;50.082;18.178;2024-01-07T13:42:47;21.90;;;10.00;;
76336;SDS011;65157;50.082;18.178;2024-01-07T13:45:14;12.90;;;5.80;;
76336;SDS011;65157;50.082;18.178;2024-01-07T13:50:09;18.00;;;7.20;;
76336;SDS011;65157;50.082;18.178;2024-01-07T13:52:36;17.40;;;7.90;;
76336;SDS011;65157;50.082;18.178;2024-01-07T13:55:04;23.10;;;9.40;;
76336;SDS011;65157;50.082;18.178;2024-01-07T13:57:31;19.70;;;9.30;;
76336;SDS011;65157;50.082;18.178;2024-01-07T13:59:57;12.90;;;7.50;;
76336;SDS011;65157;50.082;18.178;2024-01-07T14:02:24;21.40;;;9.20;;
76336;SDS011;65157;50.082;18.178;2024-01-07T14:04:50;18.90;;;8.90;;
76336;SDS011;65157;50.082;18.178;2024-01-07T14:07:17;13.10;;;4.70;;
76336;SDS011;65157;50.082;18.178;2024-01-07T14:09:44;18.70;;;7.80;;
76336;SDS011;65157;50.082;18.178;2024-01-07T14:12:11;16.60;;;7.40;;
76336;SDS011;65157;50.082;18.178;2024-01-07T14:14:39;19.70;;;8.60;;
76336;SDS011;65157;50.082;18.178;2024-01-07T14:17:05;12.20;;;5.30;;
76336;SDS011;65157;50.082;18.178;2024-01-07T14:19:33;18.40;;;8.40;;
76336;SDS011;65157;50.082;18.178;2024-01-07T14:21:59;14.90;;;8.60;;
76336;SDS011;65157;50.082;18.178;2024-01-07T14:24:26;13.90;;;7.50;;
76336;SDS011;65157;50.082;18.178;2024-01-07T14:26:53;15.50;;;8.30;;
76336;SDS011;65157;50.082;18.178;2024-01-07T14:29:19;18.10;;;8.10;;
76336;SDS011;65157;50.082;18.178;2024-01-07T14:31:49;17.40;;;7.70;;
76336;SDS011;65157;50.082;18.178;2024-01-07T14:34:16;16.10;;;7.50;;
76336;SDS011;65157;50.082;18.178;2024-01-07T14:36:43;16.90;;;8.90;;
76336;SDS011;65157;50.082;18.178;2024-01-07T14:39:10;15.60;;;8.20;;
76336;SDS011;65157;50.082;18.178;2024-01-07T14:41:36;13.80;;;7.00;;
76336;SDS011;65157;50.082;18.178;2024-01-07T14:44:03;16.60;;;9.20;;
76336;SDS011;65157;50.082;18.178;2024-01-07T14:46:30;13.10;;;7.40;;
76336;SDS011;65157;50.082;18.178;2024-01-07T14:48:56;16.20;;;7.80;;
76336;SDS011;65157;50.082;18.178;2024-01-07T14:51:23;14.60;;;8.10;;
76336;SDS011;65157;50.082;18.178;2024-01-07T14:53:50;16.10;;;8.20;;